AMX352 MMOX-MMMX
Flight info
| Callsign | AMX352 |
|---|---|
| Flight time | 0h 44m |
| Altitude | 34000 |
| Route | MAXIL UT158 KODEK UT157 LARLO LARLO4A |
| Aircraft | B38M/M-SDE1FGHILORVWXY/HB1 |
Departure
| Time | 2026-04-25 21:39 |
|---|---|
| Airport | Xoxocotlán International Airport (MMOX) |
Arrival
| Time | 2026-04-25 22:23 |
|---|---|
| Airport | Mexico City Benito Juárez International Airport (MMMX) |
| Time | Latitude | Longitude | Altitude | Speed | Heading |
|---|---|---|---|---|---|
| 2026-04-25 21:23 | 17.00144 | -96.72256 | 4997 ft | 0 kts | 105° |
| 2026-04-25 21:32 | 17.00144 | -96.72257 | 4997 ft | 2 kts | 105° |
| 2026-04-25 21:32 | 17.00148 | -96.72271 | 4997 ft | 2 kts | 105° |
| 2026-04-25 21:32 | 17.00151 | -96.72285 | 4997 ft | 2 kts | 103° |
| 2026-04-25 21:33 | 17.00154 | -96.72298 | 4997 ft | 2 kts | 96° |
| 2026-04-25 21:33 | 17.00154 | -96.72307 | 4997 ft | 1 kts | 76° |
| 2026-04-25 21:33 | 17.00153 | -96.72312 | 4997 ft | 1 kts | 49° |
| 2026-04-25 21:33 | 17.00149 | -96.72316 | 4997 ft | 1 kts | 27° |
| 2026-04-25 21:34 | 17.00144 | -96.72319 | 4997 ft | 1 kts | 19° |
| 2026-04-25 21:34 | 17.00139 | -96.72320 | 4997 ft | 1 kts | 17° |
| 2026-04-25 21:34 | 17.00136 | -96.72321 | 4997 ft | 0 kts | 16° |
| 2026-04-25 21:36 | 17.00138 | -96.72321 | 4997 ft | 1 kts | 16° |
| 2026-04-25 21:37 | 17.00161 | -96.72313 | 4997 ft | 6 kts | 17° |
| 2026-04-25 21:37 | 17.00196 | -96.72303 | 4997 ft | 10 kts | 16° |
| 2026-04-25 21:37 | 17.00290 | -96.72341 | 4994 ft | 16 kts | 285° |
| 2026-04-25 21:37 | 17.00299 | -96.72376 | 4992 ft | 5 kts | 285° |
| 2026-04-25 21:38 | 17.00313 | -96.72428 | 4990 ft | 10 kts | 285° |
| 2026-04-25 21:38 | 17.00264 | -96.72482 | 4989 ft | 24 kts | 197° |
| 2026-04-25 21:38 | 16.99889 | -96.72592 | 4990 ft | 86 kts | 195° |
| 2026-04-25 21:38 | 16.99143 | -96.72810 | 4997 ft | 135 kts | 195° |
| 2026-04-25 21:39 | 16.98142 | -96.73111 | 5211 ft | 156 kts | 194° |
| 2026-04-25 21:39 | 16.97003 | -96.73238 | 5680 ft | 173 kts | 178° |
| 2026-04-25 21:39 | 16.95782 | -96.73189 | 6206 ft | 180 kts | 187° |
| 2026-04-25 21:39 | 16.94627 | -96.73574 | 6842 ft | 176 kts | 199° |
| 2026-04-25 21:40 | 16.93396 | -96.73985 | 7237 ft | 196 kts | 196° |
| 2026-04-25 21:40 | 16.92015 | -96.74405 | 7626 ft | 217 kts | 195° |
| 2026-04-25 21:40 | 16.90489 | -96.74844 | 7995 ft | 238 kts | 194° |
| 2026-04-25 21:40 | 16.88841 | -96.75300 | 8688 ft | 242 kts | 194° |
| 2026-04-25 21:41 | 16.87237 | -96.75735 | 9785 ft | 237 kts | 194° |
| 2026-04-25 21:41 | 16.85652 | -96.76160 | 10606 ft | 241 kts | 193° |
| 2026-04-25 21:41 | 16.84003 | -96.76597 | 11353 ft | 247 kts | 193° |
| 2026-04-25 21:41 | 16.82325 | -96.77039 | 12223 ft | 252 kts | 193° |
| 2026-04-25 21:42 | 16.80573 | -96.77499 | 12853 ft | 269 kts | 193° |
| 2026-04-25 21:42 | 16.78681 | -96.77938 | 13363 ft | 288 kts | 184° |
| 2026-04-25 21:42 | 16.76652 | -96.77712 | 13885 ft | 303 kts | 156° |
| 2026-04-25 21:42 | 16.74879 | -96.76475 | 14332 ft | 317 kts | 130° |
| 2026-04-25 21:43 | 16.73765 | -96.74473 | 14880 ft | 326 kts | 104° |
| 2026-04-25 21:43 | 16.73604 | -96.72107 | 15504 ft | 333 kts | 78° |
| 2026-04-25 21:43 | 16.74516 | -96.69895 | 16242 ft | 336 kts | 51° |
| 2026-04-25 21:43 | 16.76308 | -96.68349 | 17008 ft | 341 kts | 26° |
| 2026-04-25 21:44 | 16.78622 | -96.67794 | 17788 ft | 347 kts | 359° |
| 2026-04-25 21:44 | 16.80988 | -96.68336 | 18519 ft | 353 kts | 340° |
| 2026-04-25 21:44 | 16.85712 | -96.69907 | 19908 ft | 359 kts | 345° |
| 2026-04-25 21:45 | 16.88129 | -96.70604 | 20620 ft | 363 kts | 345° |
| 2026-04-25 21:45 | 16.89754 | -96.71064 | 21082 ft | 366 kts | 345° |
| 2026-04-25 21:45 | 16.93062 | -96.71986 | 21965 ft | 370 kts | 345° |
| 2026-04-25 21:45 | 16.95569 | -96.72681 | 22615 ft | 374 kts | 344° |
| 2026-04-25 21:46 | 16.97942 | -96.73772 | 23219 ft | 377 kts | 327° |
| 2026-04-25 21:46 | 17.00120 | -96.75341 | 23792 ft | 381 kts | 326° |
| 2026-04-25 21:46 | 17.02309 | -96.76917 | 24298 ft | 384 kts | 326° |
| 2026-04-25 21:46 | 17.04511 | -96.78522 | 24844 ft | 387 kts | 325° |
| 2026-04-25 21:47 | 17.06721 | -96.80145 | 25356 ft | 390 kts | 325° |
| 2026-04-25 21:47 | 17.08946 | -96.81784 | 25886 ft | 393 kts | 325° |
| 2026-04-25 21:47 | 17.11183 | -96.83436 | 26465 ft | 395 kts | 324° |
| 2026-04-25 21:47 | 17.13410 | -96.85081 | 26968 ft | 398 kts | 324° |
| 2026-04-25 21:48 | 17.15709 | -96.86780 | 27467 ft | 401 kts | 324° |
| 2026-04-25 21:48 | 17.17998 | -96.88472 | 27941 ft | 404 kts | 324° |
| 2026-04-25 21:48 | 17.20304 | -96.90177 | 28421 ft | 407 kts | 324° |
| 2026-04-25 21:48 | 17.22622 | -96.91892 | 28939 ft | 410 kts | 324° |
| 2026-04-25 21:49 | 17.24924 | -96.93595 | 29454 ft | 413 kts | 324° |
| 2026-04-25 21:49 | 17.27275 | -96.95335 | 29926 ft | 416 kts | 324° |
| 2026-04-25 21:49 | 17.29648 | -96.97092 | 30302 ft | 419 kts | 324° |
| 2026-04-25 21:49 | 17.32031 | -96.98857 | 30703 ft | 421 kts | 324° |
| 2026-04-25 21:50 | 17.34428 | -97.00633 | 31102 ft | 423 kts | 324° |
| 2026-04-25 21:50 | 17.36836 | -97.02418 | 31478 ft | 426 kts | 324° |
| 2026-04-25 21:50 | 17.39262 | -97.04217 | 31848 ft | 429 kts | 324° |
| 2026-04-25 21:50 | 17.40911 | -97.05439 | 32116 ft | 430 kts | 324° |
| 2026-04-25 21:51 | 17.44160 | -97.07850 | 32603 ft | 434 kts | 324° |
| 2026-04-25 21:51 | 17.46624 | -97.09678 | 33035 ft | 434 kts | 324° |
| 2026-04-25 21:51 | 17.49089 | -97.11509 | 33511 ft | 434 kts | 323° |
| 2026-04-25 21:51 | 17.51554 | -97.13339 | 33866 ft | 435 kts | 323° |
| 2026-04-25 21:52 | 17.54011 | -97.15165 | 33922 ft | 431 kts | 323° |
| 2026-04-25 21:52 | 17.58908 | -97.18806 | 33903 ft | 437 kts | 323° |
| 2026-04-25 21:53 | 17.63464 | -97.23172 | 33901 ft | 451 kts | 315° |
| 2026-04-25 21:53 | 17.68022 | -97.27755 | 33906 ft | 454 kts | 315° |
| 2026-04-25 21:54 | 17.72575 | -97.32348 | 33897 ft | 454 kts | 315° |
| 2026-04-25 21:54 | 17.77133 | -97.36951 | 33885 ft | 455 kts | 315° |
| 2026-04-25 21:55 | 17.81691 | -97.41557 | 33881 ft | 455 kts | 315° |
| 2026-04-25 21:55 | 17.86252 | -97.46169 | 33872 ft | 455 kts | 315° |
| 2026-04-25 21:56 | 17.90819 | -97.50790 | 33863 ft | 456 kts | 315° |
| 2026-04-25 21:56 | 17.95384 | -97.55414 | 33850 ft | 456 kts | 315° |
| 2026-04-25 21:57 | 17.99956 | -97.60048 | 33839 ft | 456 kts | 315° |
| 2026-04-25 21:57 | 18.04523 | -97.64680 | 33837 ft | 456 kts | 315° |
| 2026-04-25 21:58 | 18.09087 | -97.69312 | 33820 ft | 456 kts | 315° |
| 2026-04-25 21:58 | 18.13652 | -97.73951 | 33815 ft | 456 kts | 315° |
| 2026-04-25 21:59 | 18.18211 | -97.78586 | 33809 ft | 456 kts | 315° |
| 2026-04-25 21:59 | 18.22773 | -97.83226 | 33802 ft | 456 kts | 315° |
| 2026-04-25 22:00 | 18.29530 | -97.90108 | 33799 ft | 435 kts | 315° |
| 2026-04-25 22:00 | 18.33843 | -97.94503 | 33784 ft | 430 kts | 315° |
| 2026-04-25 22:01 | 18.35944 | -97.96645 | 33784 ft | 418 kts | 315° |
| 2026-04-25 22:01 | 18.38021 | -97.98763 | 33715 ft | 404 kts | 315° |
| 2026-04-25 22:01 | 18.39997 | -98.00780 | 33270 ft | 400 kts | 315° |
| 2026-04-25 22:01 | 18.41346 | -98.02157 | 32875 ft | 400 kts | 315° |
| 2026-04-25 22:02 | 18.43988 | -98.04855 | 32156 ft | 399 kts | 315° |
| 2026-04-25 22:02 | 18.45975 | -98.06885 | 31660 ft | 397 kts | 315° |
| 2026-04-25 22:02 | 18.47952 | -98.08904 | 31170 ft | 395 kts | 315° |
| 2026-04-25 22:02 | 18.49921 | -98.10918 | 30662 ft | 394 kts | 315° |
| 2026-04-25 22:03 | 18.51891 | -98.12931 | 30178 ft | 393 kts | 315° |
| 2026-04-25 22:03 | 18.53847 | -98.14933 | 29681 ft | 392 kts | 315° |
| 2026-04-25 22:03 | 18.55802 | -98.16932 | 29133 ft | 390 kts | 315° |
| 2026-04-25 22:03 | 18.57744 | -98.18921 | 28659 ft | 388 kts | 315° |
| 2026-04-25 22:04 | 18.59671 | -98.20893 | 28200 ft | 385 kts | 315° |
| 2026-04-25 22:04 | 18.61585 | -98.22853 | 27747 ft | 382 kts | 315° |
| 2026-04-25 22:04 | 18.63483 | -98.24799 | 27314 ft | 379 kts | 315° |
| 2026-04-25 22:04 | 18.65368 | -98.26730 | 26876 ft | 377 kts | 315° |
| 2026-04-25 22:05 | 18.67241 | -98.28650 | 26450 ft | 374 kts | 315° |
| 2026-04-25 22:05 | 18.69101 | -98.30558 | 26025 ft | 372 kts | 315° |
| 2026-04-25 22:05 | 18.70839 | -98.32577 | 25501 ft | 373 kts | 303° |
| 2026-04-25 22:05 | 18.71898 | -98.35070 | 25017 ft | 375 kts | 285° |
| 2026-04-25 22:06 | 18.72446 | -98.37749 | 24607 ft | 373 kts | 283° |
| 2026-04-25 22:06 | 18.72977 | -98.40429 | 24136 ft | 374 kts | 283° |
| 2026-04-25 22:06 | 18.73492 | -98.43120 | 23668 ft | 375 kts | 282° |
| 2026-04-25 22:06 | 18.73997 | -98.45822 | 23134 ft | 376 kts | 282° |
| 2026-04-25 22:07 | 18.74496 | -98.48531 | 22598 ft | 376 kts | 282° |
| 2026-04-25 22:07 | 18.74824 | -98.50323 | 22273 ft | 376 kts | 282° |
| 2026-04-25 22:07 | 18.75485 | -98.53937 | 21634 ft | 374 kts | 282° |
| 2026-04-25 22:07 | 18.75975 | -98.56625 | 21171 ft | 373 kts | 282° |
| 2026-04-25 22:08 | 18.76463 | -98.59307 | 20700 ft | 372 kts | 282° |
| 2026-04-25 22:08 | 18.76951 | -98.61981 | 20228 ft | 371 kts | 282° |
| 2026-04-25 22:08 | 18.77436 | -98.64652 | 19760 ft | 371 kts | 282° |
| 2026-04-25 22:08 | 18.77922 | -98.67324 | 19282 ft | 370 kts | 282° |
| 2026-04-25 22:09 | 18.78406 | -98.69992 | 18807 ft | 371 kts | 282° |
| 2026-04-25 22:09 | 18.78891 | -98.72664 | 18340 ft | 371 kts | 282° |
| 2026-04-25 22:09 | 18.79376 | -98.75340 | 17828 ft | 372 kts | 282° |
| 2026-04-25 22:09 | 18.79861 | -98.78021 | 17315 ft | 372 kts | 282° |
| 2026-04-25 22:10 | 18.80182 | -98.79792 | 16990 ft | 371 kts | 282° |
| 2026-04-25 22:10 | 18.80708 | -98.82427 | 16835 ft | 360 kts | 284° |
| 2026-04-25 22:10 | 18.81248 | -98.84952 | 16829 ft | 346 kts | 284° |
| 2026-04-25 22:10 | 18.81765 | -98.87393 | 16820 ft | 337 kts | 284° |
| 2026-04-25 22:11 | 18.82272 | -98.89801 | 16809 ft | 336 kts | 284° |
| 2026-04-25 22:11 | 18.82942 | -98.92984 | 16822 ft | 335 kts | 284° |
| 2026-04-25 22:11 | 18.83283 | -98.94605 | 16819 ft | 334 kts | 284° |
| 2026-04-25 22:11 | 18.84122 | -98.96825 | 16745 ft | 320 kts | 307° |
| 2026-04-25 22:12 | 18.85705 | -98.98384 | 16691 ft | 307 kts | 329° |
| 2026-04-25 22:12 | 18.87634 | -98.99347 | 16603 ft | 313 kts | 343° |
| 2026-04-25 22:12 | 18.89788 | -98.99761 | 16523 ft | 318 kts | 357° |
| 2026-04-25 22:12 | 18.91258 | -98.99836 | 16463 ft | 321 kts | 357° |
| 2026-04-25 22:13 | 18.94256 | -99.00005 | 16313 ft | 323 kts | 357° |
| 2026-04-25 22:13 | 18.96500 | -99.00124 | 16043 ft | 322 kts | 357° |
| 2026-04-25 22:13 | 18.98733 | -99.00237 | 15703 ft | 320 kts | 357° |
| 2026-04-25 22:13 | 19.00944 | -99.00347 | 15362 ft | 317 kts | 357° |
| 2026-04-25 22:14 | 19.03133 | -99.00455 | 15016 ft | 314 kts | 357° |
| 2026-04-25 22:14 | 19.05298 | -99.00562 | 14749 ft | 308 kts | 357° |
| 2026-04-25 22:14 | 19.07407 | -99.00664 | 14584 ft | 297 kts | 357° |
| 2026-04-25 22:14 | 19.09412 | -99.00760 | 14432 ft | 280 kts | 357° |
| 2026-04-25 22:15 | 19.11291 | -99.00852 | 14338 ft | 259 kts | 357° |
| 2026-04-25 22:15 | 19.12999 | -99.00936 | 14219 ft | 240 kts | 357° |
| 2026-04-25 22:15 | 19.14637 | -99.01021 | 14102 ft | 233 kts | 357° |
| 2026-04-25 22:16 | 19.17799 | -99.01551 | 13794 ft | 232 kts | 330° |
| 2026-04-25 22:16 | 19.19058 | -99.02612 | 13584 ft | 232 kts | 320° |
| 2026-04-25 22:16 | 19.20263 | -99.03748 | 13359 ft | 232 kts | 319° |
| 2026-04-25 22:16 | 19.21456 | -99.04895 | 13122 ft | 231 kts | 319° |
| 2026-04-25 22:17 | 19.22641 | -99.06048 | 12894 ft | 231 kts | 318° |
| 2026-04-25 22:17 | 19.23816 | -99.07202 | 12681 ft | 230 kts | 318° |
| 2026-04-25 22:17 | 19.24870 | -99.08475 | 12460 ft | 231 kts | 308° |
| 2026-04-25 22:17 | 19.25827 | -99.09837 | 12207 ft | 231 kts | 308° |
| 2026-04-25 22:18 | 19.26689 | -99.11043 | 11988 ft | 231 kts | 308° |
| 2026-04-25 22:18 | 19.27659 | -99.12391 | 11745 ft | 230 kts | 308° |
| 2026-04-25 22:18 | 19.28629 | -99.13730 | 11495 ft | 227 kts | 308° |
| 2026-04-25 22:18 | 19.29582 | -99.15038 | 11252 ft | 222 kts | 308° |
| 2026-04-25 22:19 | 19.30516 | -99.16316 | 11007 ft | 218 kts | 308° |
| 2026-04-25 22:19 | 19.31437 | -99.17574 | 10760 ft | 214 kts | 308° |
| 2026-04-25 22:19 | 19.32481 | -99.18682 | 10493 ft | 212 kts | 323° |
| 2026-04-25 22:19 | 19.33803 | -99.19342 | 10187 ft | 212 kts | 346° |
| 2026-04-25 22:20 | 19.35270 | -99.19355 | 9844 ft | 214 kts | 15° |
| 2026-04-25 22:20 | 19.36561 | -99.18610 | 9595 ft | 209 kts | 37° |
| 2026-04-25 22:20 | 19.37614 | -99.17566 | 9408 ft | 207 kts | 49° |
| 2026-04-25 22:20 | 19.38423 | -99.16340 | 9267 ft | 199 kts | 59° |
| 2026-04-25 22:21 | 19.39063 | -99.15079 | 9133 ft | 189 kts | 59° |
| 2026-04-25 22:21 | 19.39705 | -99.13934 | 9014 ft | 176 kts | 57° |
| 2026-04-25 22:21 | 19.40327 | -99.12834 | 8727 ft | 172 kts | 58° |
| 2026-04-25 22:21 | 19.40928 | -99.11753 | 8352 ft | 168 kts | 58° |
| 2026-04-25 22:22 | 19.41517 | -99.10701 | 7976 ft | 163 kts | 58° |
| 2026-04-25 22:22 | 19.42074 | -99.09697 | 7696 ft | 159 kts | 57° |
| 2026-04-25 22:22 | 19.42634 | -99.08692 | 7420 ft | 154 kts | 56° |
| 2026-04-25 22:22 | 19.43174 | -99.07733 | 7316 ft | 141 kts | 56° |
| 2026-04-25 22:23 | 19.43609 | -99.06961 | 7304 ft | 97 kts | 60° |
| 2026-04-25 22:23 | 19.43847 | -99.06542 | 7305 ft | 48 kts | 60° |
| 2026-04-25 22:23 | 19.43953 | -99.06347 | 7304 ft | 25 kts | 60° |
| 2026-04-25 22:23 | 19.43968 | -99.06174 | 7305 ft | 24 kts | 91° |
| 2026-04-25 22:24 | 19.43960 | -99.06045 | 7305 ft | 11 kts | 118° |
| 2026-04-25 22:24 | 19.43931 | -99.06041 | 7305 ft | 2 kts | 232° |
| 2026-04-25 22:24 | 19.43905 | -99.06091 | 7305 ft | 15 kts | 240° |
| 2026-04-25 22:24 | 19.43829 | -99.06233 | 7305 ft | 28 kts | 240° |
| 2026-04-25 22:25 | 19.43745 | -99.06387 | 7305 ft | 21 kts | 239° |
| 2026-04-25 22:25 | 19.43668 | -99.06523 | 7305 ft | 22 kts | 239° |
| 2026-04-25 22:25 | 19.43588 | -99.06662 | 7305 ft | 23 kts | 232° |
| 2026-04-25 22:25 | 19.43454 | -99.06757 | 7305 ft | 24 kts | 219° |
| 2026-04-25 22:26 | 19.43377 | -99.06907 | 7305 ft | 23 kts | 239° |
| 2026-04-25 22:26 | 19.43294 | -99.07053 | 7305 ft | 24 kts | 239° |
| 2026-04-25 22:26 | 19.43256 | -99.07224 | 7305 ft | 24 kts | 256° |
| 2026-04-25 22:26 | 19.43180 | -99.07380 | 7305 ft | 19 kts | 239° |
| 2026-04-25 22:27 | 19.43109 | -99.07504 | 7305 ft | 20 kts | 239° |
| 2026-04-25 22:27 | 19.43035 | -99.07637 | 7305 ft | 22 kts | 239° |
| 2026-04-25 22:27 | 19.42945 | -99.07768 | 7305 ft | 23 kts | 225° |
| 2026-04-25 22:27 | 19.42814 | -99.07864 | 7305 ft | 24 kts | 204° |
| 2026-04-25 22:28 | 19.42669 | -99.07827 | 7305 ft | 23 kts | 149° |
| 2026-04-25 22:28 | 19.42550 | -99.07813 | 7305 ft | 11 kts | 207° |
| 2026-04-25 22:28 | 19.42496 | -99.07843 | 7305 ft | 0 kts | 206° |